(°F)
82°
81°
80°
78°
77°
76°
76°
(°F)
87°
86°
85°
84°
83°
82°
82°
W
W
WSW
WSW
WSW
WSW
WSW
(mph)
7-14
6-13
6-13
6-13
6-12
6-12
6-12
(in)
0
0
0
0
0
0
0
(%)
0
0
0
0
0
0
0

Sun elevation

/ -32°
sun-icon
UV 7
06:25
20:24
Waxing crescent moon (23°)
08:05
22:34

METAR for Orlando (KORL)

Time Conditions Temperature/
Dewpoint
Wind Visibility Weather Clouds Pressure Change Raw
VFR 82.94°F / 69.08°F 250º 8kt >10km - Clear 1012 - KORL 130253Z AUTO 25008KT 10SM CLR 28/21 A2991 RMK AO2 SLP129 T02830206 53022
VFR 84.02°F / 68°F 270º 9kt >10km - Clear 1011 - KORL 130153Z AUTO 27009KT 10SM CLR 29/20 A2988 RMK AO2 SLP119 T02890200
VFR 86°F / 66.92°F 280º 8kt >10km - Clear 1010 - KORL 130053Z 28008KT 10SM CLR 30/19 A2984 RMK AO2 SLP106 T03000194
VFR 89.06°F / 66.92°F 280º 10kt >10km - Clear 1010 - KORL 122353Z 28010KT 10SM CLR 32/19 A2984 RMK AO2 TSE2255 SLP107 T03170194 10350 20294 51008
VFR 87.98°F / 71.96°F 250º 3kt >10km - Few Clouds 5000ft - KORL 122301Z 25003KT 10SM FEW050 31/22 A2983 RMK AO2 TSE2255 T03110222
VFR 87.98°F / 71.96°F 220º 5kt >10km Thunderstorm Vertical Visibility of 0ft. 1010 - KORL 122253Z 22005KT 10SM TS FEW050 FEW120 31/22 A2983 RMK AO2 TSB38 SLP105 T03110222
VFR 87.98°F / 71.96°F 220º 5kt >10km Thunderstorm Vertical Visibility of 0ft. - KORL 122244Z 22005KT 10SM TS FEW050 SCT070 BKN120 31/22 A2984 RMK AO2 LTG DSNT NE TSB38 T03110222
VFR 87.98°F / 71.06°F 170º 8kt >10km - Broken Clouds 5000ft 1010 - KORL 122153Z 17008KT 10SM BKN050 BKN060 31/22 A2984 RMK AO2 SLP106 T03110217
VFR 91.04°F / 68°F 170º 7kt >10km - Scattered Clouds 5500ft 1009 - KORL 122053Z 17007KT 10SM SCT055 SCT070 33/20 A2982 RMK AO2 LTG DSNT E-S TSE37 SLP098 T03280200 56016
VFR 91.94°F / 69.98°F 240º 9kt >10km in the Vicinity Thunderstorm Vertical Visibility of 0ft. - KORL 121943Z 24009KT 10SM VCTS FEW049 SCT110 33/21 A2985 RMK AO2 LTG DSNT S AND SW T03330211
VFR 95°F / 69.98°F variable 6kt Gust 14kt >10km - Few Clouds 4700ft 1011 - KORL 121853Z VRB06G14KT 10SM FEW047 SCT060 35/21 A2986 RMK AO2 SLP114 T03500211
VFR 93.92°F / 69.08°F 260º variable 220º to 290º 7kt >10km - Few Clouds 4900ft 1012 - KORL 121753Z 26007KT 220V290 10SM FEW049 34/21 A2988 RMK AO2 SLP120 T03440206 10350 20267 58019
VFR 91.04°F / 69.08°F 270º 8kt >10km - Scattered Clouds 4500ft 1012 - KORL 121653Z 27008KT 10SM SCT045 33/21 A2990 RMK AO2 SLP127 T03280206
VFR 89.06°F / 71.96°F 250º 6kt >10km - Few Clouds 3300ft 1013 - KORL 121553Z 25006KT 10SM FEW033 32/22 A2992 RMK AO2 SLP134 T03170222
VFR 87.08°F / 71.96°F 270º 6kt >10km - Few Clouds 3000ft 1013 - KORL 121453Z 27006KT 10SM FEW030 SCT040 31/22 A2994 RMK AO2 SLP139 T03060222 51003
VFR 84.92°F / 73.04°F 240º 7kt >10km - Few Clouds 2300ft 1013 - KORL 121353Z 24007KT 10SM FEW023 29/23 A2993 RMK AO2 SLP139 T02940228
VFR 82.94°F / 73.94°F 230º 7kt >10km - Few Clouds 1900ft 1014 - KORL 121253Z 23007KT 10SM FEW019 28/23 A2994 RMK AO2 SLP140 T02830233
VFR 80.06°F / 73.94°F 210º 6kt >10km - Few Clouds 2100ft - KORL 121203Z 21006KT 10SM FEW021 27/23 A2993 RMK AO2 T02670233
MVFR 80.06°F / 73.94°F 200º 6kt >10km - Broken Clouds 2100ft 1013 - KORL 121153Z 20006KT 10SM BKN021 27/23 A2993 RMK AO2 SLP136 70001 T02670233 10272 20250 53003
MVFR 78.98°F / 73.94°F 210º 5kt >10km - Broken Clouds 2000ft - KORL 121139Z 21005KT 10SM BKN020 26/23 A2993 RMK AO2 T02610233
VFR 77°F / 73.04°F 240º 3kt >10km - Clear 1013 - KORL 121053Z 24003KT 10SM CLR 25/23 A2993 RMK AO2 SLP136 T02500228
VFR 78.08°F / 73.04°F 220º 3kt >10km - Clear 1013 - KORL 120953Z AUTO 22003KT 10SM CLR 26/23 A2992 RMK AO2 SLP133 T02560228
VFR 78.08°F / 73.04°F 220º 4kt >10km - Clear 1013 - KORL 120853Z AUTO 22004KT 10SM CLR 26/23 A2992 RMK AO2 SLP133 T02560228 55012
VFR 78.98°F / 73.04°F 250º 4kt >10km - Clear 1013 - KORL 120753Z AUTO 25004KT 10SM CLR 26/23 A2992 RMK AO2 SLP133 T02610228

VFR

82.94°F / 69.08°F

[More]
Wind 250º 8kt
Visibility >10km
Weather -
Clouds Clear
Pressure 1012
Change -
Raw KORL 130253Z AUTO 25008KT 10SM CLR 28/21 A2991 RMK AO2 SLP129 T02830206 53022

VFR

84.02°F / 68°F

[More]
Wind 270º 9kt
Visibility >10km
Weather -
Clouds Clear
Pressure 1011
Change -
Raw KORL 130153Z AUTO 27009KT 10SM CLR 29/20 A2988 RMK AO2 SLP119 T02890200

VFR

86°F / 66.92°F

[More]
Wind 280º 8kt
Visibility >10km
Weather -
Clouds Clear
Pressure 1010
Change -
Raw KORL 130053Z 28008KT 10SM CLR 30/19 A2984 RMK AO2 SLP106 T03000194

VFR

89.06°F / 66.92°F

[More]
Wind 280º 10kt
Visibility >10km
Weather -
Clouds Clear
Pressure 1010
Change -
Raw KORL 122353Z 28010KT 10SM CLR 32/19 A2984 RMK AO2 TSE2255 SLP107 T03170194 10350 20294 51008

VFR

87.98°F / 71.96°F

[More]
Wind 250º 3kt
Visibility >10km
Weather -
Clouds Few Clouds 5000ft
Pressure
Change -
Raw KORL 122301Z 25003KT 10SM FEW050 31/22 A2983 RMK AO2 TSE2255 T03110222

VFR

87.98°F / 71.96°F

[More]
Wind 220º 5kt
Visibility >10km
Weather Thunderstorm
Clouds Vertical Visibility of 0ft.
Pressure 1010
Change -
Raw KORL 122253Z 22005KT 10SM TS FEW050 FEW120 31/22 A2983 RMK AO2 TSB38 SLP105 T03110222

VFR

87.98°F / 71.96°F

[More]
Wind 220º 5kt
Visibility >10km
Weather Thunderstorm
Clouds Vertical Visibility of 0ft.
Pressure
Change -
Raw KORL 122244Z 22005KT 10SM TS FEW050 SCT070 BKN120 31/22 A2984 RMK AO2 LTG DSNT NE TSB38 T03110222

VFR

87.98°F / 71.06°F

[More]
Wind 170º 8kt
Visibility >10km
Weather -
Clouds Broken Clouds 5000ft
Pressure 1010
Change -
Raw KORL 122153Z 17008KT 10SM BKN050 BKN060 31/22 A2984 RMK AO2 SLP106 T03110217

VFR

91.04°F / 68°F

[More]
Wind 170º 7kt
Visibility >10km
Weather -
Clouds Scattered Clouds 5500ft
Pressure 1009
Change -
Raw KORL 122053Z 17007KT 10SM SCT055 SCT070 33/20 A2982 RMK AO2 LTG DSNT E-S TSE37 SLP098 T03280200 56016

VFR

91.94°F / 69.98°F

[More]
Wind 240º 9kt
Visibility >10km
Weather in the Vicinity Thunderstorm
Clouds Vertical Visibility of 0ft.
Pressure
Change -
Raw KORL 121943Z 24009KT 10SM VCTS FEW049 SCT110 33/21 A2985 RMK AO2 LTG DSNT S AND SW T03330211

VFR

95°F / 69.98°F

[More]
Wind variable 6kt Gust 14kt
Visibility >10km
Weather -
Clouds Few Clouds 4700ft
Pressure 1011
Change -
Raw KORL 121853Z VRB06G14KT 10SM FEW047 SCT060 35/21 A2986 RMK AO2 SLP114 T03500211

VFR

93.92°F / 69.08°F

[More]
Wind 260º variable 220º to 290º 7kt
Visibility >10km
Weather -
Clouds Few Clouds 4900ft
Pressure 1012
Change -
Raw KORL 121753Z 26007KT 220V290 10SM FEW049 34/21 A2988 RMK AO2 SLP120 T03440206 10350 20267 58019

VFR

91.04°F / 69.08°F

[More]
Wind 270º 8kt
Visibility >10km
Weather -
Clouds Scattered Clouds 4500ft
Pressure 1012
Change -
Raw KORL 121653Z 27008KT 10SM SCT045 33/21 A2990 RMK AO2 SLP127 T03280206

VFR

89.06°F / 71.96°F

[More]
Wind 250º 6kt
Visibility >10km
Weather -
Clouds Few Clouds 3300ft
Pressure 1013
Change -
Raw KORL 121553Z 25006KT 10SM FEW033 32/22 A2992 RMK AO2 SLP134 T03170222

VFR

87.08°F / 71.96°F

[More]
Wind 270º 6kt
Visibility >10km
Weather -
Clouds Few Clouds 3000ft
Pressure 1013
Change -
Raw KORL 121453Z 27006KT 10SM FEW030 SCT040 31/22 A2994 RMK AO2 SLP139 T03060222 51003

VFR

84.92°F / 73.04°F

[More]
Wind 240º 7kt
Visibility >10km
Weather -
Clouds Few Clouds 2300ft
Pressure 1013
Change -
Raw KORL 121353Z 24007KT 10SM FEW023 29/23 A2993 RMK AO2 SLP139 T02940228

VFR

82.94°F / 73.94°F

[More]
Wind 230º 7kt
Visibility >10km
Weather -
Clouds Few Clouds 1900ft
Pressure 1014
Change -
Raw KORL 121253Z 23007KT 10SM FEW019 28/23 A2994 RMK AO2 SLP140 T02830233

VFR

80.06°F / 73.94°F

[More]
Wind 210º 6kt
Visibility >10km
Weather -
Clouds Few Clouds 2100ft
Pressure
Change -
Raw KORL 121203Z 21006KT 10SM FEW021 27/23 A2993 RMK AO2 T02670233

MVFR

80.06°F / 73.94°F

[More]
Wind 200º 6kt
Visibility >10km
Weather -
Clouds Broken Clouds 2100ft
Pressure 1013
Change -
Raw KORL 121153Z 20006KT 10SM BKN021 27/23 A2993 RMK AO2 SLP136 70001 T02670233 10272 20250 53003

MVFR

78.98°F / 73.94°F

[More]
Wind 210º 5kt
Visibility >10km
Weather -
Clouds Broken Clouds 2000ft
Pressure
Change -
Raw KORL 121139Z 21005KT 10SM BKN020 26/23 A2993 RMK AO2 T02610233

VFR

77°F / 73.04°F

[More]
Wind 240º 3kt
Visibility >10km
Weather -
Clouds Clear
Pressure 1013
Change -
Raw KORL 121053Z 24003KT 10SM CLR 25/23 A2993 RMK AO2 SLP136 T02500228

VFR

78.08°F / 73.04°F

[More]
Wind 220º 3kt
Visibility >10km
Weather -
Clouds Clear
Pressure 1013
Change -
Raw KORL 120953Z AUTO 22003KT 10SM CLR 26/23 A2992 RMK AO2 SLP133 T02560228

VFR

78.08°F / 73.04°F

[More]
Wind 220º 4kt
Visibility >10km
Weather -
Clouds Clear
Pressure 1013
Change -
Raw KORL 120853Z AUTO 22004KT 10SM CLR 26/23 A2992 RMK AO2 SLP133 T02560228 55012

VFR

78.98°F / 73.04°F

[More]
Wind 250º 4kt
Visibility >10km
Weather -
Clouds Clear
Pressure 1013
Change -
Raw KORL 120753Z AUTO 25004KT 10SM CLR 26/23 A2992 RMK AO2 SLP133 T02610228

Current satellite images for Orlando, United States of America

The location marker is placed on Orlando. [More]

The real-time satellite image combines visible light during daytime with infrared radiation during nighttime. At night, the image is not dark as infrared radiation can detect temperature differences. Unfortunately, low clouds and fog are difficult to distinguish from ground temperatures and thus can be almost invisible during the night. Meteosat satellite images for Europe are updated in real-time every 5 minutes. GOES-16/GOES-17 (North & South America) and Himawari (Asia) images update every 10 minutes.

Radar and precipitation nowcast for Orlando

The location marker is placed on Orlando. This animation shows the precipitation radar for the last hour, as well as a 1h forecast. Drizzle or light snow fall might be invisible for the radar. Precipitation intensity is colour coded, ranging from light blue to heavy purple.